Time;durP1;ratioP1;P1;durP2;ratioP2;P2;SDS_P1;SDS_P2;PMS_P1;PMS_P2;Temp;Humidity;BMP_temperature;BMP_pressure;BME280_temperature;BME280_humidity;BME280_pressure;Samples;Min_cycle;Max_cycle;Signal;HPM_P1;HPM_P2
2021/08/10 00:00:54;;;;;;;3.33;2.13;;;17.40;99.90;;;;;;3584749;40;20237;-78
2021/08/10 00:03:21;;;;;;;3.28;2.70;;;17.30;99.90;;;;;;3592510;40;20271;-78
2021/08/10 00:05:49;;;;;;;2.75;2.42;;;17.10;99.90;;;;;;3592328;40;20806;-78
2021/08/10 00:08:16;;;;;;;3.30;2.35;;;17.10;99.90;;;;;;3575977;40;20238;-79
2021/08/10 00:10:44;;;;;;;2.33;2.13;;;16.90;99.90;;;;;;3582748;40;20271;-78
2021/08/10 00:13:13;;;;;;;2.00;1.70;;;17.00;99.90;;;;;;3566429;40;20621;-79
2021/08/10 00:15:41;;;;;;;2.00;1.80;;;16.80;99.90;;;;;;3582947;40;20259;-80
2021/08/10 00:18:09;;;;;;;3.33;2.20;;;17.20;99.90;;;;;;3574488;40;20240;-78
2021/08/10 00:20:37;;;;;;;3.13;2.17;;;17.00;99.90;;;;;;3574510;40;20259;-78
2021/08/10 00:23:05;;;;;;;4.55;2.75;;;16.80;99.90;;;;;;3583137;40;20287;-78
2021/08/10 00:25:32;;;;;;;3.17;2.13;;;16.90;99.90;;;;;;3583050;40;20254;-78
2021/08/10 00:28:12;;;;;;;4.47;2.50;;;17.00;99.90;;;;;;3575390;40;20265;-78
2021/08/10 00:30:41;;;;;;;3.42;2.10;;;16.90;99.90;;;;;;3583276;40;20232;-77
2021/08/10 00:33:09;;;;;;;2.88;2.17;;;16.80;99.90;;;;;;3574693;40;20243;-78
2021/08/10 00:35:36;;;;;;;2.45;2.22;;;16.90;99.90;;;;;;3574504;40;20246;-78
2021/08/10 00:38:03;;;;;;;2.83;2.35;;;16.60;99.90;;;;;;3574598;40;20689;-79
2021/08/10 00:40:32;;;;;;;3.95;2.25;;;16.50;99.90;;;;;;3566277;40;20243;-78
2021/08/10 00:43:03;;;;;;;5.35;1.90;;;16.60;99.90;;;;;;3566300;40;20232;-81
2021/08/10 00:45:31;;;;;;;4.05;2.38;;;16.60;99.90;;;;;;3566315;40;20251;-77
2021/08/10 00:47:59;;;;;;;3.72;2.60;;;16.60;99.90;;;;;;3574664;40;20244;-78
2021/08/10 00:50:30;;;;;;;2.30;2.13;;;16.60;99.90;;;;;;3574712;40;20260;-78
2021/08/10 00:52:58;;;;;;;2.80;2.35;;;16.50;99.90;;;;;;3574288;40;20263;-80
2021/08/10 00:55:25;;;;;;;2.55;2.17;;;16.40;99.90;;;;;;3583004;40;20236;-82
2021/08/10 00:57:54;;;;;;;3.13;2.55;;;16.60;99.90;;;;;;3574599;40;20227;-77
2021/08/10 01:00:23;;;;;;;4.90;2.28;;;16.60;99.90;;;;;;3574481;40;20236;-78
2021/08/10 01:02:52;;;;;;;3.10;2.25;;;16.70;99.90;;;;;;3583209;40;20212;-77
2021/08/10 01:05:19;;;;;;;3.05;2.67;;;16.60;99.90;;;;;;3574417;40;20232;-78
2021/08/10 01:07:54;;;;;;;2.45;2.03;;;16.60;99.90;;;;;;3574526;40;20232;-78
2021/08/10 01:10:26;;;;;;;4.45;2.22;;;16.50;99.90;;;;;;3574374;40;20231;-78
2021/08/10 01:13:00;;;;;;;1.65;1.55;;;16.40;99.90;;;;;;3565633;40;20305;-77
2021/08/10 01:15:33;;;;;;;3.72;2.90;;;16.30;99.90;;;;;;3573595;40;20262;-78
2021/08/10 01:18:06;;;;;;;3.33;2.00;;;16.20;99.90;;;;;;3565598;40;20235;-79
2021/08/10 01:21:08;;;;;;;2.30;1.83;;;16.20;99.90;;;;;;3573322;40;20243;-77
2021/08/10 01:23:37;;;;;;;2.10;1.90;;;16.10;99.90;;;;;;3573710;40;20257;-78
2021/08/10 01:26:16;;;;;;;2.83;2.25;;;16.00;99.90;;;;;;3574251;40;20231;-77
2021/08/10 01:28:52;;;;;;;5.10;2.15;;;15.90;99.90;;;;;;3574394;40;20297;-77
2021/08/10 01:31:27;;;;;;;4.03;2.40;;;15.90;99.90;;;;;;3566451;40;20232;-78
2021/08/10 01:34:14;;;;;;;2.95;2.10;;;15.70;99.90;;;;;;3574641;40;20216;-77
2021/08/10 01:36:44;;;;;;;3.28;2.08;;;15.80;99.90;;;;;;3574359;40;20248;-77
2021/08/10 01:39:13;;;;;;;3.30;2.08;;;15.70;99.90;;;;;;3574263;40;20228;-77
2021/08/10 01:41:55;;;;;;;4.50;2.28;;;15.60;99.90;;;;;;3574385;40;20244;-79
2021/08/10 01:44:25;;;;;;;1.83;1.73;;;15.60;99.90;;;;;;3574114;40;20224;-78
2021/08/10 01:46:55;;;;;;;2.95;2.65;;;15.70;99.90;;;;;;3573318;40;20677;-77
2021/08/10 01:49:24;;;;;;;3.65;2.53;;;15.80;99.90;;;;;;3582863;40;20249;-78
2021/08/10 01:51:52;;;;;;;3.67;2.95;;;15.80;99.90;;;;;;3573841;40;20241;-77
2021/08/10 01:54:23;;;;;;;2.72;2.35;;;15.90;99.90;;;;;;3591526;40;20584;-78
2021/08/10 01:56:51;;;;;;;4.88;2.67;;;15.70;99.90;;;;;;3583390;40;20548;-78
2021/08/10 01:59:21;;;;;;;2.53;2.17;;;15.80;99.90;;;;;;3582930;40;20227;-77
2021/08/10 02:01:51;;;;;;;2.28;2.08;;;15.80;99.90;;;;;;3583307;40;20242;-77
2021/08/10 02:04:23;;;;;;;5.45;2.60;;;15.90;99.90;;;;;;3583696;40;20238;-77
2021/08/10 02:06:55;;;;;;;4.40;2.40;;;16.00;99.90;;;;;;3583593;40;20246;-77
2021/08/10 02:09:26;;;;;;;2.92;2.42;;;16.00;99.90;;;;;;3583283;40;20297;-77
2021/08/10 02:11:54;;;;;;;1.92;1.40;;;15.70;99.90;;;;;;3575494;40;20254;-78
2021/08/10 02:14:25;;;;;;;2.15;1.90;;;15.80;99.90;;;;;;3583484;40;20231;-77
2021/08/10 02:16:57;;;;;;;3.33;2.33;;;15.80;99.90;;;;;;3583338;40;20250;-79
2021/08/10 02:19:30;;;;;;;1.95;1.77;;;16.00;99.90;;;;;;3583659;40;20632;-77
2021/08/10 02:22:02;;;;;;;3.65;2.42;;;16.10;99.90;;;;;;3583494;40;20234;-79
2021/08/10 02:24:36;;;;;;;2.78;2.08;;;16.20;99.90;;;;;;3583364;40;20242;-77
2021/08/10 02:27:07;;;;;;;3.55;1.67;;;16.20;99.90;;;;;;3582979;40;20246;-77
2021/08/10 02:29:38;;;;;;;2.50;2.30;;;16.20;99.90;;;;;;3578375;40;20692;-78
2021/08/10 02:32:08;;;;;;;1.65;1.55;;;16.20;99.90;;;;;;3572958;40;20228;-79
2021/08/10 02:34:42;;;;;;;2.15;1.75;;;16.30;99.90;;;;;;3572722;40;20224;-76
2021/08/10 02:37:14;;;;;;;2.28;2.00;;;16.30;99.90;;;;;;3571754;40;20231;-78
2021/08/10 02:39:46;;;;;;;4.28;1.88;;;16.40;99.90;;;;;;3579349;40;20658;-77
2021/08/10 02:42:17;;;;;;;2.47;2.25;;;16.20;99.90;;;;;;3571998;40;20310;-77
2021/08/10 02:44:46;;;;;;;3.53;2.15;;;16.20;99.90;;;;;;3573466;40;20246;-78
2021/08/10 02:47:18;;;;;;;1.83;1.67;;;16.30;99.90;;;;;;3576721;40;20268;-78
2021/08/10 02:49:47;;;;;;;3.70;2.40;;;16.40;99.90;;;;;;3582804;40;20298;-75
2021/08/10 02:52:14;;;;;;;2.08;1.85;;;16.40;99.90;;;;;;3577272;40;20243;-76
2021/08/10 02:54:43;;;;;;;4.70;2.40;;;16.40;99.90;;;;;;3576991;40;20585;-75
2021/08/10 02:57:15;;;;;;;3.00;2.13;;;16.40;99.90;;;;;;3576713;40;20237;-76
2021/08/10 02:59:48;;;;;;;4.22;1.98;;;16.40;99.90;;;;;;3577171;40;20346;-75
2021/08/10 03:02:18;;;;;;;2.38;1.85;;;16.30;99.90;;;;;;3571102;40;20239;-75
2021/08/10 03:04:51;;;;;;;2.22;1.70;;;16.30;99.90;;;;;;3568610;40;20216;-75
2021/08/10 03:07:21;;;;;;;3.03;2.30;;;16.30;99.90;;;;;;3568090;40;20246;-76
2021/08/10 03:09:50;;;;;;;3.75;2.40;;;16.40;99.90;;;;;;3568960;40;20250;-75
2021/08/10 03:12:19;;;;;;;3.90;2.17;;;16.30;99.90;;;;;;3559969;40;20250;-76
2021/08/10 03:14:48;;;;;;;2.17;1.80;;;16.30;99.90;;;;;;3568746;40;20259;-77
2021/08/10 03:17:17;;;;;;;2.47;1.80;;;16.30;99.90;;;;;;3569342;40;20306;-75
2021/08/10 03:19:46;;;;;;;2.20;2.00;;;16.30;99.90;;;;;;3570459;40;20251;-75
2021/08/10 03:22:16;;;;;;;2.10;1.90;;;16.40;99.90;;;;;;3568399;40;20251;-76
2021/08/10 03:24:45;;;;;;;7.60;2.78;;;16.40;99.90;;;;;;3568345;40;20247;-75
2021/08/10 03:27:13;;;;;;;3.45;2.15;;;16.30;99.90;;;;;;3568340;40;20227;-76
2021/08/10 03:29:40;;;;;;;2.67;1.85;;;16.20;99.90;;;;;;3568069;40;20239;-76
2021/08/10 03:32:08;;;;;;;2.15;2.03;;;16.20;99.90;;;;;;3568211;40;20705;-75
2021/08/10 03:34:37;;;;;;;2.65;2.20;;;16.20;99.90;;;;;;3568202;40;20287;-76
2021/08/10 03:37:05;;;;;;;3.20;2.08;;;16.20;99.90;;;;;;3577159;40;20247;-77
2021/08/10 03:39:38;;;;;;;2.97;2.40;;;16.20;99.90;;;;;;3567882;40;20627;-76
2021/08/10 03:42:07;;;;;;;2.92;2.03;;;16.30;99.90;;;;;;3577076;40;20247;-77
2021/08/10 03:44:36;;;;;;;2.95;2.03;;;16.30;99.90;;;;;;3568447;40;20255;-76
2021/08/10 03:47:04;;;;;;;2.70;2.50;;;16.30;99.90;;;;;;3568174;40;20256;-76
2021/08/10 03:49:33;;;;;;;2.25;1.77;;;16.30;99.90;;;;;;3571052;40;20244;-75
2021/08/10 03:52:02;;;;;;;3.75;2.15;;;16.30;99.90;;;;;;3568786;40;20247;-75
2021/08/10 03:54:30;;;;;;;2.85;2.38;;;16.40;99.90;;;;;;3567572;40;20235;-75
2021/08/10 03:57:00;;;;;;;5.88;2.40;;;16.50;99.90;;;;;;3567246;40;20244;-75
2021/08/10 03:59:33;;;;;;;2.83;2.08;;;16.40;99.90;;;;;;3567559;40;20632;-75
2021/08/10 04:02:03;;;;;;;2.05;1.90;;;16.40;99.90;;;;;;3575155;40;20242;-75
2021/08/10 04:04:31;;;;;;;2.50;2.13;;;16.40;99.90;;;;;;3576380;40;20243;-76
2021/08/10 04:07:04;;;;;;;2.63;1.90;;;16.30;99.90;;;;;;3567322;40;20239;-76
2021/08/10 04:09:33;;;;;;;1.85;1.75;;;16.30;99.90;;;;;;3567530;40;20240;-76
2021/08/10 04:12:04;;;;;;;2.50;2.28;;;16.20;99.90;;;;;;3567251;40;20608;-76
2021/08/10 04:14:34;;;;;;;3.38;1.85;;;16.30;99.90;;;;;;3567529;40;20244;-76
2021/08/10 04:17:05;;;;;;;3.97;2.50;;;16.20;99.90;;;;;;3566466;40;20259;-76
2021/08/10 04:19:38;;;;;;;2.17;1.98;;;16.20;99.90;;;;;;3558585;40;20239;-75
2021/08/10 04:22:06;;;;;;;2.10;1.88;;;16.20;99.90;;;;;;3567477;40;20248;-75
2021/08/10 04:24:36;;;;;;;2.40;2.20;;;16.20;99.90;;;;;;3567434;40;20216;-75
2021/08/10 04:27:06;;;;;;;4.10;2.30;;;16.20;99.90;;;;;;3567523;40;20248;-75
2021/08/10 04:29:34;;;;;;;3.22;2.00;;;16.20;99.90;;;;;;3567967;40;20212;-75
2021/08/10 04:32:02;;;;;;;1.65;1.35;;;16.20;99.90;;;;;;3576635;40;20251;-75
2021/08/10 04:34:30;;;;;;;2.63;1.88;;;16.20;99.90;;;;;;3567136;40;20283;-76
2021/08/10 04:36:58;;;;;;;3.70;2.22;;;16.20;99.90;;;;;;3567607;40;20248;-76
2021/08/10 04:39:26;;;;;;;5.97;2.40;;;16.30;99.90;;;;;;3567170;40;20232;-75
2021/08/10 04:41:54;;;;;;;6.90;2.10;;;16.20;99.90;;;;;;3569223;40;20236;-76
2021/08/10 04:44:23;;;;;;;4.32;2.60;;;16.40;99.90;;;;;;3567712;40;20588;-76
2021/08/10 04:46:50;;;;;;;2.17;1.98;;;16.40;99.90;;;;;;3567160;40;20247;-75
2021/08/10 04:49:17;;;;;;;2.33;1.95;;;16.30;99.90;;;;;;3571443;40;20247;-76
2021/08/10 04:51:45;;;;;;;2.42;1.80;;;16.30;99.90;;;;;;3567375;40;20235;-75
2021/08/10 04:54:16;;;;;;;4.60;2.05;;;16.30;99.90;;;;;;3567579;40;20239;-76
2021/08/10 04:56:45;;;;;;;4.90;2.47;;;16.40;99.90;;;;;;3559388;40;20649;-76
2021/08/10 04:59:12;;;;;;;3.08;2.00;;;16.40;99.90;;;;;;3576741;40;20247;-77
2021/08/10 05:01:44;;;;;;;1.80;1.58;;;16.50;99.90;;;;;;3559340;40;20247;-75
2021/08/10 05:04:11;;;;;;;2.20;1.95;;;16.60;99.90;;;;;;3567523;40;20520;-76
2021/08/10 05:06:41;;;;;;;2.72;1.75;;;16.60;99.90;;;;;;3567633;40;20252;-76
2021/08/10 05:09:09;;;;;;;3.97;2.28;;;16.70;99.90;;;;;;3568234;40;20221;-76
2021/08/10 05:11:37;;;;;;;2.03;1.83;;;16.70;99.90;;;;;;3567967;40;20247;-75
2021/08/10 05:14:05;;;;;;;16.25;14.57;;;16.70;99.90;;;;;;3567968;40;20239;-76
2021/08/10 05:16:32;;;;;;;6.20;2.33;;;16.60;99.90;;;;;;3566699;40;20325;-76
2021/08/10 05:19:01;;;;;;;2.53;2.33;;;16.60;99.90;;;;;;3566807;40;20251;-77
2021/08/10 05:21:33;;;;;;;3.38;1.73;;;16.60;99.90;;;;;;3565823;40;20243;-75
2021/08/10 05:24:01;;;;;;;2.88;2.00;;;16.40;99.90;;;;;;3565789;40;20663;-75
2021/08/10 05:26:28;;;;;;;2.35;1.83;;;16.70;99.90;;;;;;3566492;40;20243;-75
2021/08/10 05:28:58;;;;;;;2.40;1.95;;;16.80;99.90;;;;;;3566144;40;20279;-75
2021/08/10 05:31:25;;;;;;;4.07;1.73;;;16.70;99.90;;;;;;3575891;40;20243;-75
2021/08/10 05:33:52;;;;;;;2.90;2.00;;;16.80;99.90;;;;;;3567145;40;20246;-75
2021/08/10 05:36:21;;;;;;;1.70;1.60;;;16.70;99.90;;;;;;3576068;40;20274;-76
2021/08/10 05:38:52;;;;;;;2.05;1.60;;;16.90;99.90;;;;;;3567628;40;20279;-76
2021/08/10 05:41:20;;;;;;;2.83;2.58;;;16.90;99.90;;;;;;3567109;40;20243;-76
2021/08/10 05:43:47;;;;;;;4.07;2.22;;;17.10;99.90;;;;;;3567023;40;20531;-76
2021/08/10 05:46:14;;;;;;;3.17;1.98;;;16.90;99.90;;;;;;3576619;40;20259;-76
2021/08/10 05:48:41;;;;;;;2.90;2.28;;;17.00;99.90;;;;;;3567914;40;20240;-77
2021/08/10 05:51:10;;;;;;;4.53;2.47;;;17.00;99.90;;;;;;3557963;40;20236;-75
2021/08/10 05:53:40;;;;;;;9.13;2.70;;;17.10;99.90;;;;;;3567700;40;20283;-75
2021/08/10 05:56:10;;;;;;;2.13;1.83;;;17.10;99.90;;;;;;3572620;40;20236;-75
2021/08/10 05:58:37;;;;;;;4.05;2.35;;;17.10;99.90;;;;;;3572829;40;20231;-75
2021/08/10 06:01:06;;;;;;;7.18;2.33;;;17.10;99.90;;;;;;3568493;40;20247;-75
2021/08/10 06:03:34;;;;;;;4.13;2.08;;;17.20;99.90;;;;;;3563335;40;20239;-75
2021/08/10 06:06:02;;;;;;;3.78;2.97;;;17.20;99.90;;;;;;3568202;40;20410;-76
2021/08/10 06:08:37;;;;;;;2.50;2.13;;;17.10;99.90;;;;;;3567165;40;20634;-74
2021/08/10 06:11:05;;;;;;;3.53;1.90;;;17.20;99.90;;;;;;3567518;40;20622;-75
2021/08/10 06:13:36;;;;;;;4.82;2.55;;;17.20;99.90;;;;;;3568781;40;20239;-75
2021/08/10 06:16:03;;;;;;;2.58;1.75;;;17.20;99.90;;;;;;3570299;40;20243;-75
2021/08/10 06:18:31;;;;;;;3.28;2.03;;;17.20;99.90;;;;;;3564753;40;20251;-75
2021/08/10 06:20:58;;;;;;;3.47;2.58;;;17.20;99.90;;;;;;3573752;40;20247;-75
2021/08/10 06:23:25;;;;;;;2.35;1.88;;;17.30;99.90;;;;;;3575630;40;20230;-75
2021/08/10 06:25:53;;;;;;;3.70;2.50;;;17.30;99.90;;;;;;3572481;40;20258;-76
2021/08/10 06:28:22;;;;;;;3.95;2.50;;;17.40;99.90;;;;;;3576284;40;20236;-75
2021/08/10 06:30:56;;;;;;;3.60;2.13;;;17.20;99.90;;;;;;3568245;40;20247;-75
2021/08/10 06:33:23;;;;;;;3.05;2.45;;;17.30;99.90;;;;;;3571306;40;20553;-75
2021/08/10 06:35:50;;;;;;;4.75;2.33;;;17.30;99.90;;;;;;3562985;40;20532;-76
2021/08/10 06:38:17;;;;;;;2.15;1.95;;;17.30;99.90;;;;;;3565752;40;20252;-76
2021/08/10 06:40:44;;;;;;;3.17;2.33;;;17.40;99.90;;;;;;3566148;40;20256;-75
2021/08/10 06:43:11;;;;;;;2.33;2.13;;;17.40;99.90;;;;;;3564696;40;20286;-77
2021/08/10 06:45:42;;;;;;;3.88;2.55;;;17.30;99.90;;;;;;3568227;40;20236;-76
2021/08/10 06:48:09;;;;;;;3.25;2.40;;;17.30;99.90;;;;;;3564109;40;20253;-75
2021/08/10 06:50:39;;;;;;;3.67;2.53;;;17.20;99.90;;;;;;3565257;40;20227;-76
2021/08/10 06:53:06;;;;;;;3.20;1.80;;;17.30;99.90;;;;;;3563991;40;20514;-77
2021/08/10 06:55:43;;;;;;;5.47;2.10;;;17.10;99.90;;;;;;3566696;40;20232;-78
2021/08/10 06:58:10;;;;;;;3.05;2.40;;;17.20;99.90;;;;;;3571543;40;20240;-77
2021/08/10 07:00:40;;;;;;;3.75;2.10;;;17.00;99.90;;;;;;3573839;40;20248;-78
2021/08/10 07:03:08;;;;;;;4.10;2.60;;;17.00;99.90;;;;;;3574400;40;20259;-78
2021/08/10 07:05:36;;;;;;;2.53;2.13;;;17.00;99.90;;;;;;3569433;40;20816;-78
2021/08/10 07:08:05;;;;;;;3.60;2.03;;;16.90;99.90;;;;;;3573016;40;20562;-77
2021/08/10 07:10:35;;;;;;;4.70;2.58;;;16.90;99.90;;;;;;3571077;40;20750;-76
2021/08/10 07:13:02;;;;;;;4.00;2.70;;;16.80;99.90;;;;;;3573565;40;20232;-78
2021/08/10 07:15:30;;;;;;;4.15;2.45;;;16.80;99.90;;;;;;3575986;40;20228;-77
2021/08/10 07:18:00;;;;;;;5.10;2.60;;;16.70;99.90;;;;;;3583351;40;20243;-77
2021/08/10 07:20:27;;;;;;;2.65;2.45;;;16.90;99.90;;;;;;3573695;40;20978;-80
2021/08/10 07:22:54;;;;;;;5.15;2.35;;;16.80;99.90;;;;;;3572451;40;20228;-75
2021/08/10 07:25:22;;;;;;;3.33;2.58;;;16.80;99.90;;;;;;3572244;40;20232;-77
2021/08/10 07:27:51;;;;;;;3.70;2.67;;;17.00;99.90;;;;;;3581209;40;20247;-77
2021/08/10 07:30:21;;;;;;;3.20;2.45;;;17.10;99.90;;;;;;3574020;40;20247;-77
2021/08/10 07:32:48;;;;;;;4.18;2.80;;;17.10;99.90;;;;;;3571620;40;20849;-78
2021/08/10 07:35:18;;;;;;;3.38;2.00;;;17.10;99.90;;;;;;3578618;40;20235;-79
2021/08/10 07:37:45;;;;;;;3.85;2.40;;;17.40;99.90;;;;;;3570142;40;20267;-80
2021/08/10 07:40:15;;;;;;;4.03;2.22;;;17.60;99.90;;;;;;3572448;40;20232;-79
2021/08/10 07:42:47;;;;;;;4.25;2.78;;;17.60;99.90;;;;;;3580648;40;20736;-77
2021/08/10 07:45:14;;;;;;;5.93;2.92;;;17.50;99.90;;;;;;3573170;40;20295;-79
2021/08/10 07:47:45;;;;;;;3.30;2.00;;;17.70;99.90;;;;;;3575513;40;20227;-78
2021/08/10 07:50:12;;;;;;;2.88;2.15;;;17.90;99.90;;;;;;3575875;40;20298;-82
2021/08/10 07:52:41;;;;;;;2.17;1.98;;;18.30;99.90;;;;;;3577070;40;20231;-78
2021/08/10 07:55:10;;;;;;;3.53;2.15;;;18.30;99.90;;;;;;3584212;40;20247;-79
2021/08/10 07:57:41;;;;;;;3.08;1.80;;;18.50;99.90;;;;;;3575623;40;20231;-78
2021/08/10 08:00:09;;;;;;;4.05;2.90;;;18.60;99.90;;;;;;3581454;40;20775;-79
2021/08/10 08:02:40;;;;;;;2.63;2.42;;;18.50;99.90;;;;;;3584958;40;20240;-77
2021/08/10 08:05:10;;;;;;;2.78;2.10;;;18.50;99.90;;;;;;3573309;40;20232;-77
2021/08/10 08:07:37;;;;;;;3.60;2.47;;;18.30;99.90;;;;;;3584408;40;20343;-78
2021/08/10 08:10:07;;;;;;;3.10;1.73;;;18.40;99.90;;;;;;3579704;40;20234;-81
2021/08/10 08:12:35;;;;;;;2.13;1.98;;;18.30;99.90;;;;;;3580835;40;20227;-78
2021/08/10 08:15:02;;;;;;;6.40;3.70;;;18.30;99.90;;;;;;3573995;40;20259;-78
2021/08/10 08:17:29;;;;;;;4.05;2.72;;;18.30;99.90;;;;;;3582618;40;20381;-78
2021/08/10 08:19:56;;;;;;;4.63;2.80;;;18.30;99.90;;;;;;3574292;40;20231;-79
2021/08/10 08:22:24;;;;;;;4.03;2.75;;;18.40;99.90;;;;;;3574131;40;20243;-77
2021/08/10 08:24:51;;;;;;;4.70;2.90;;;18.50;99.90;;;;;;3581788;40;20227;-77
2021/08/10 08:27:20;;;;;;;3.30;2.97;;;18.40;99.90;;;;;;3580443;40;20308;-78
2021/08/10 08:29:47;;;;;;;4.85;3.10;;;18.40;99.90;;;;;;3592849;40;20246;-78
2021/08/10 08:32:15;;;;;;;3.88;2.80;;;18.30;99.90;;;;;;3574178;40;20231;-79
2021/08/10 08:34:42;;;;;;;5.03;3.60;;;18.50;99.90;;;;;;3573659;40;20234;-78
2021/08/10 08:37:10;;;;;;;3.97;2.80;;;18.70;99.90;;;;;;3574234;40;20243;-78
2021/08/10 08:39:38;;;;;;;6.40;3.78;;;18.80;99.90;;;;;;3577436;40;20223;-78
2021/08/10 08:42:07;;;;;;;6.82;4.15;;;18.70;99.90;;;;;;3572474;40;20903;-77
2021/08/10 08:44:35;;;;;;;3.75;3.00;;;18.80;99.90;;;;;;3574392;40;20852;-77
2021/08/10 08:47:06;;;;;;;4.70;3.63;;;18.90;99.90;;;;;;3573784;40;20244;-77
2021/08/10 08:49:35;;;;;;;4.63;3.58;;;19.00;99.90;;;;;;3572226;40;20235;-79
2021/08/10 08:52:05;;;;;;;6.38;4.32;;;19.10;99.90;;;;;;3574139;40;20216;-82
2021/08/10 08:54:34;;;;;;;5.78;3.88;;;19.30;99.90;;;;;;3573600;40;20515;-78
2021/08/10 08:57:02;;;;;;;6.80;4.88;;;19.40;99.90;;;;;;3586131;40;20257;-77
2021/08/10 08:59:29;;;;;;;7.13;4.90;;;19.60;99.90;;;;;;3573546;40;20239;-78
2021/08/10 09:01:58;;;;;;;4.47;3.75;;;19.70;99.90;;;;;;3566933;40;20263;-77
2021/08/10 09:04:25;;;;;;;6.53;4.05;;;19.70;99.90;;;;;;3578670;40;20248;-77
2021/08/10 09:06:58;;;;;;;4.82;4.30;;;19.70;99.90;;;;;;3566516;40;20642;-78
2021/08/10 09:09:27;;;;;;;6.65;4.75;;;19.90;99.90;;;;;;3568027;40;20244;-78
2021/08/10 09:12:21;;;;;;;5.05;4.55;;;20.20;99.90;;;;;;3576571;40;20232;-79
2021/08/10 09:14:53;;;;;;;4.18;3.60;;;20.40;99.90;;;;;;3571552;40;20238;-78
2021/08/10 09:17:33;;;;;;;4.57;4.18;;;20.50;99.90;;;;;;3564834;40;20258;-78
2021/08/10 09:20:09;;;;;;;8.00;5.07;;;20.90;99.90;;;;;;3571017;40;20650;-78
2021/08/10 09:22:45;;;;;;;5.55;4.45;;;20.80;99.90;;;;;;3569324;40;20232;-78
2021/08/10 09:25:32;;;;;;;6.20;5.32;;;20.80;99.90;;;;;;3577647;40;20235;-77
2021/08/10 09:28:15;;;;;;;5.43;4.60;;;20.60;99.90;;;;;;3570088;40;20257;-78
2021/08/10 09:30:48;;;;;;;6.38;4.82;;;20.40;99.90;;;;;;3567899;40;20248;-78
2021/08/10 09:33:17;;;;;;;5.43;4.82;;;20.80;99.90;;;;;;3558880;40;20281;-79
2021/08/10 09:35:50;;;;;;;5.53;5.00;;;20.80;99.90;;;;;;3560780;40;20334;-78
2021/08/10 09:38:21;;;;;;;7.95;5.38;;;21.10;99.90;;;;;;3569918;40;20258;-78
2021/08/10 09:40:53;;;;;;;6.63;4.88;;;21.40;99.90;;;;;;3575897;40;20482;-78
2021/08/10 09:43:28;;;;;;;6.90;4.53;;;21.50;99.90;;;;;;3571184;40;20551;-78
2021/08/10 09:46:12;;;;;;;5.35;4.75;;;21.50;99.90;;;;;;3568932;40;20322;-77
2021/08/10 09:48:43;;;;;;;10.27;5.70;;;21.40;99.90;;;;;;3568387;40;20247;-77
2021/08/10 09:51:15;;;;;;;8.32;5.18;;;21.10;99.90;;;;;;3570031;40;20328;-79
2021/08/10 09:53:54;;;;;;;6.93;5.20;;;21.30;99.90;;;;;;3579831;40;20247;-78
2021/08/10 09:56:50;;;;;;;8.50;4.82;;;21.40;99.90;;;;;;3577729;40;20236;-81
2021/08/10 09:59:44;;;;;;;5.82;4.20;;;21.30;99.90;;;;;;3573151;40;20584;-79
2021/08/10 10:02:39;;;;;;;5.07;4.57;;;21.40;99.90;;;;;;3573307;40;20264;-80
2021/08/10 10:05:22;;;;;;;5.45;4.40;;;21.60;99.90;;;;;;3553120;40;20237;-80
2021/08/10 10:08:17;;;;;;;5.15;4.45;;;21.70;99.90;;;;;;3555185;40;20257;-79
2021/08/10 10:10:51;;;;;;;5.50;4.45;;;21.80;99.90;;;;;;3553021;40;20249;-83
2021/08/10 10:13:25;;;;;;;8.10;4.72;;;22.00;99.90;;;;;;3552605;40;20245;-82
2021/08/10 10:15:54;;;;;;;5.95;4.63;;;22.00;99.90;;;;;;3564844;40;20303;-81
2021/08/10 10:18:31;;;;;;;7.28;4.15;;;21.80;99.90;;;;;;3562707;40;20241;-80
2021/08/10 10:21:02;;;;;;;5.25;4.07;;;21.90;99.90;;;;;;3567201;40;20259;-77
2021/08/10 10:23:31;;;;;;;5.43;3.83;;;21.90;99.90;;;;;;3549408;40;20247;-80
2021/08/10 10:26:02;;;;;;;6.13;4.15;;;22.00;99.90;;;;;;3563277;40;20260;-80
2021/08/10 10:28:32;;;;;;;6.50;4.85;;;22.20;99.90;;;;;;3572920;40;20239;-77
2021/08/10 10:31:00;;;;;;;7.50;5.22;;;22.60;99.90;;;;;;3579221;40;20235;-80
2021/08/10 10:33:28;;;;;;;5.28;4.38;;;22.60;99.90;;;;;;3580829;40;20252;-81
2021/08/10 10:35:58;;;;;;;7.18;4.72;;;22.30;99.90;;;;;;3580132;40;20619;-78
2021/08/10 10:38:27;;;;;;;6.00;4.82;;;22.60;99.90;;;;;;3581057;40;20275;-79
2021/08/10 10:40:55;;;;;;;7.13;4.35;;;22.70;99.90;;;;;;3582266;40;20243;-78
2021/08/10 10:43:24;;;;;;;6.43;4.50;;;22.60;99.90;;;;;;3579212;40;20255;-78
2021/08/10 10:45:54;;;;;;;4.97;4.22;;;22.90;99.90;;;;;;3577405;40;20247;-77
2021/08/10 10:48:44;;;;;;;6.68;3.67;;;22.90;99.90;;;;;;3560952;40;20264;-78
2021/08/10 10:51:13;;;;;;;4.97;4.20;;;23.10;99.90;;;;;;3573469;40;20261;-78
2021/08/10 10:53:43;;;;;;;4.75;3.58;;;23.00;99.90;;;;;;3580099;40;20227;-83
2021/08/10 10:56:32;;;;;;;5.88;3.88;;;23.00;99.90;;;;;;3581330;40;20240;-78
2021/08/10 10:59:35;;;;;;;4.68;4.15;;;23.20;99.90;;;;;;3571784;40;20239;-79
2021/08/10 11:02:21;;;;;;;5.70;3.70;;;23.30;99.90;;;;;;3575002;40;20239;-82
2021/08/10 11:05:27;;;;;;;4.00;3.42;;;23.20;99.90;;;;;;3580483;40;20223;-83
2021/08/10 11:07:56;;;;;;;4.93;3.55;;;23.00;99.90;;;;;;3577916;40;20297;-79
2021/08/10 11:10:45;;;;;;;4.00;3.33;;;23.10;99.90;;;;;;3582413;40;20247;-79
2021/08/10 11:13:35;;;;;;;5.25;3.47;;;23.20;99.90;;;;;;3573695;40;20249;-79
2021/08/10 11:16:02;;;;;;;3.97;3.67;;;22.90;99.90;;;;;;3580993;40;20231;-80
2021/08/10 11:18:30;;;;;;;4.38;3.20;;;23.00;99.90;;;;;;3581936;40;20208;-78
2021/08/10 11:21:25;;;;;;;6.05;4.20;;;23.20;99.90;;;;;;3582085;40;20224;-79
2021/08/10 11:23:53;;;;;;;3.97;3.28;;;23.30;99.90;;;;;;3591018;40;20299;-78
2021/08/10 11:26:36;;;;;;;4.80;3.13;;;;;;;;;;3580991;40;20255;-80
2021/08/10 11:29:03;;;;;;;5.88;3.80;;;22.90;99.90;;;;;;3587105;40;20222;-78
2021/08/10 11:31:42;;;;;;;3.60;3.00;;;22.90;99.90;;;;;;3590327;40;20243;-78
2021/08/10 11:34:33;;;;;;;4.40;3.63;;;22.80;99.90;;;;;;3593145;40;20249;-80
2021/08/10 11:37:27;;;;;;;4.45;3.58;;;23.20;99.90;;;;;;3587029;40;20296;-78
2021/08/10 11:40:15;;;;;;;3.78;3.20;;;23.30;99.90;;;;;;3582645;40;20261;-79
2021/08/10 11:42:54;;;;;;;5.18;3.17;;;23.80;99.90;;;;;;3584346;40;20256;-78
2021/08/10 11:45:25;;;;;;;3.75;3.42;;;23.30;99.90;;;;;;3582839;40;20232;-86
2021/08/10 11:48:00;;;;;;;4.28;3.10;;;23.20;99.90;;;;;;3574645;40;20243;-79
2021/08/10 11:50:28;;;;;;;4.63;3.58;;;23.60;99.90;;;;;;3576067;40;20259;-79
2021/08/10 11:52:55;;;;;;;3.53;3.22;;;24.20;99.90;;;;;;3582562;40;20293;-78
2021/08/10 11:55:29;;;;;;;4.03;3.65;;;24.30;99.90;;;;;;3574545;40;20244;-80
2021/08/10 11:58:00;;;;;;;4.25;3.70;;;24.20;99.90;;;;;;3583296;40;20227;-79
2021/08/10 12:00:31;;;;;;;3.88;3.25;;;24.50;99.90;;;;;;3586820;40;20247;-78
2021/08/10 12:02:59;;;;;;;4.82;3.75;;;24.20;99.90;;;;;;3590790;40;20243;-80
2021/08/10 12:05:32;;;;;;;6.70;4.32;;;24.10;99.90;;;;;;3586188;40;20302;-79
2021/08/10 12:08:02;;;;;;;4.40;3.88;;;24.00;99.90;;;;;;3585430;40;20242;-83
2021/08/10 12:10:38;;;;;;;4.18;3.78;;;24.10;99.90;;;;;;3582650;40;20239;-79
2021/08/10 12:13:26;;;;;;;3.95;3.55;;;23.70;99.90;;;;;;3582483;40;20800;-80
2021/08/10 12:15:57;;;;;;;3.55;3.17;;;24.10;99.90;;;;;;3582317;40;20239;-80
2021/08/10 12:18:25;;;;;;;5.10;3.38;;;24.50;99.90;;;;;;3582439;40;20322;-80
2021/08/10 12:21:03;;;;;;;4.15;3.75;;;24.10;99.90;;;;;;3582254;40;20239;-79
2021/08/10 12:23:40;;;;;;;11.10;3.92;;;24.00;99.90;;;;;;3573461;40;20294;-79
2021/08/10 12:26:14;;;;;;;3.35;3.05;;;24.50;99.90;;;;;;3582195;40;20228;-80
2021/08/10 12:28:57;;;;;;;3.88;3.08;;;24.10;99.90;;;;;;3572430;40;20235;-82
2021/08/10 12:31:25;;;;;;;3.53;3.17;;;24.40;99.90;;;;;;3563793;40;20247;-79
2021/08/10 12:34:04;;;;;;;4.50;3.35;;;24.70;99.90;;;;;;3569377;40;20275;-82
2021/08/10 12:36:32;;;;;;;4.05;3.65;;;25.10;99.90;;;;;;3571293;40;20242;-79
2021/08/10 12:39:02;;;;;;;4.57;4.15;;;24.90;99.90;;;;;;3583532;40;20239;-77
2021/08/10 12:41:30;;;;;;;5.05;4.05;;;24.70;99.90;;;;;;3574613;40;20246;-84
2021/08/10 12:44:01;;;;;;;4.63;4.07;;;24.80;99.90;;;;;;3575662;40;20262;-78
2021/08/10 12:46:31;;;;;;;5.18;3.55;;;24.10;99.90;;;;;;3581225;40;20259;-81
2021/08/10 12:49:03;;;;;;;4.72;3.65;;;24.00;99.90;;;;;;3583933;40;20642;-79
2021/08/10 12:51:52;;;;;;;5.10;3.35;;;23.90;99.90;;;;;;3565374;40;20284;-78
2021/08/10 12:54:21;;;;;;;3.70;3.17;;;23.50;99.90;;;;;;3583174;40;20239;-78
2021/08/10 12:57:25;;;;;;;2.83;2.63;;;23.40;99.90;;;;;;3589535;40;20346;-80
2021/08/10 13:00:55;;;;;;;4.47;3.47;;;23.20;99.90;;;;;;3574434;40;20232;-79
2021/08/10 13:03:41;;;;;;;4.13;3.22;;;22.80;99.90;;;;;;3580955;40;20747;-81
2021/08/10 13:06:10;;;;;;;4.45;3.28;;;22.80;99.90;;;;;;3582080;40;20631;-79
2021/08/10 13:09:06;;;;;;;4.38;3.53;;;22.80;99.90;;;;;;3585314;40;20231;-79
2021/08/10 13:12:09;;;;;;;3.53;3.20;;;22.80;99.90;;;;;;3582697;40;20248;-81